createdAt,value
2019-03-31T00:01:24.010Z,97289.41
2019-03-31T00:03:02.695Z,97291.95
2019-03-31T00:04:39.365Z,97292.84
2019-03-31T00:06:18.531Z,97286.19
2019-03-31T00:07:54.995Z,97290.61
2019-03-31T00:09:32.379Z,97286.67
2019-03-31T00:11:10.485Z,97291.38
2019-03-31T00:12:56.116Z,97287.72
2019-03-31T00:14:32.416Z,97288.17
2019-03-31T00:16:09.978Z,97294.79
2019-03-31T00:17:55.315Z,97294.38
2019-03-31T00:19:39.430Z,97286.17
2019-03-31T00:21:19.155Z,97288.42
2019-03-31T00:22:55.742Z,97284.34
2019-03-31T00:24:35.225Z,97281.91
2019-03-31T00:26:13.341Z,97286.96
2019-03-31T00:27:56.939Z,97283.88
2019-03-31T00:29:33.033Z,97281.54
2019-03-31T00:31:22.132Z,97283.19
2019-03-31T00:33:10.032Z,97286.19
2019-03-31T00:34:46.679Z,97284.30
2019-03-31T00:36:26.032Z,97281.83
2019-03-31T00:38:03.735Z,97276.85
2019-03-31T00:39:40.492Z,97279.06
2019-03-31T00:41:21.561Z,97274.82
2019-03-31T00:43:05.741Z,97275.52
2019-03-31T00:44:44.278Z,97278.79
2019-03-31T00:46:21.219Z,97278.22
2019-03-31T00:47:59.334Z,97276.00
2019-03-31T00:49:35.851Z,97282.41
2019-03-31T00:51:12.191Z,97279.75
2019-03-31T00:52:48.647Z,97281.55
2019-03-31T00:54:27.768Z,97278.96
2019-03-31T00:56:03.848Z,97281.03
2019-03-31T00:57:40.410Z,97281.23
2019-03-31T00:59:19.240Z,97280.52
2019-03-31T01:01:17.073Z,97274.73
2019-03-31T01:02:53.828Z,97281.99
2019-03-31T01:04:34.167Z,97280.92
2019-03-31T01:06:10.400Z,97279.05
2019-03-31T01:07:46.686Z,97284.87
2019-03-31T01:09:28.889Z,97287.62
2019-03-31T01:11:05.733Z,97283.26
2019-03-31T01:12:44.788Z,97279.80
2019-03-31T01:14:24.372Z,97284.38
2019-03-31T01:16:01.167Z,97279.18
2019-03-31T01:17:40.625Z,97280.92
2019-03-31T01:19:23.215Z,97286.61
2019-03-31T01:20:59.870Z,97282.41
2019-03-31T01:22:36.625Z,97288.47
2019-03-31T01:24:16.013Z,97287.20
2019-03-31T01:25:54.085Z,97285.44
2019-03-31T01:27:34.678Z,97287.95
2019-03-31T01:29:11.415Z,97292.14
2019-03-31T01:30:53.321Z,97290.41
2019-03-31T01:32:29.416Z,97295.81
2019-03-31T01:34:08.233Z,97294.21
2019-03-31T01:35:44.444Z,97292.28
2019-03-31T01:37:22.058Z,97297.95
2019-03-31T01:38:58.819Z,97303.96
2019-03-31T01:40:35.249Z,97301.11
2019-03-31T01:42:12.017Z,97304.82
2019-03-31T01:43:50.415Z,97302.92
2019-03-31T01:45:27.302Z,97305.25
2019-03-31T01:47:04.772Z,97310.66
2019-03-31T01:48:41.399Z,97303.51
2019-03-31T01:50:20.241Z,97302.69
2019-03-31T01:51:59.045Z,97304.23
2019-03-31T01:53:35.320Z,97306.94
2019-03-31T01:55:18.102Z,97302.69
2019-03-31T01:56:56.106Z,97301.69
2019-03-31T01:58:34.026Z,97305.75
2019-03-31T02:00:14.306Z,97302.45
2019-03-31T02:02:04.006Z,97304.63
2019-03-31T02:03:45.565Z,97306.17
2019-03-31T02:05:21.064Z,97308.26
2019-03-31T02:06:57.182Z,97306.02
2019-03-31T02:08:33.294Z,97305.47
2019-03-31T02:10:12.566Z,97305.09
2019-03-31T02:11:48.829Z,97301.63
2019-03-31T02:13:25.376Z,97308.01
2019-03-31T02:15:02.341Z,97309.20
2019-03-31T02:16:41.765Z,97308.78
2019-03-31T02:18:17.858Z,97306.24
2019-03-31T02:19:56.899Z,97309.11
2019-03-31T02:21:34.459Z,97302.31
2019-03-31T02:23:10.482Z,97301.11
2019-03-31T02:24:47.570Z,97307.28
2019-03-31T02:26:24.314Z,97300.38
2019-03-31T02:28:00.448Z,97300.18
2019-03-31T02:29:37.187Z,97302.69
2019-03-31T02:31:14.078Z,97300.98
2019-03-31T02:32:50.641Z,97299.64
2019-03-31T02:34:29.966Z,97306.02
2019-03-31T02:36:06.561Z,97303.89
2019-03-31T02:37:44.525Z,97306.63
2019-03-31T02:39:21.703Z,97303.37
2019-03-31T02:40:57.916Z,97308.01
2019-03-31T02:42:34.085Z,97322.34
2019-03-31T02:44:10.963Z,97318.85
2019-03-31T02:45:46.989Z,97311.31
2019-03-31T02:47:24.163Z,97305.92
2019-03-31T02:49:00.771Z,97310.74
2019-03-31T02:51:01.535Z,97313.86
2019-03-31T02:52:38.102Z,97312.50
2019-03-31T02:54:14.545Z,97321.56
2019-03-31T02:55:52.910Z,97313.81
2019-03-31T02:57:28.927Z,97317.27
2019-03-31T02:59:05.495Z,97310.11
2019-03-31T03:00:41.795Z,97317.48
2019-03-31T03:02:18.697Z,97321.16
2019-03-31T03:04:00.686Z,97322.88
2019-03-31T03:05:36.852Z,97318.00
2019-03-31T03:07:13.822Z,97325.36
2019-03-31T03:08:54.035Z,97329.03
2019-03-31T03:10:30.081Z,97323.23
2019-03-31T03:12:08.659Z,97325.13
2019-03-31T03:13:47.283Z,97324.77
2019-03-31T03:15:31.083Z,97327.13
2019-03-31T03:17:07.359Z,97325.02
2019-03-31T03:18:48.421Z,97328.52
2019-03-31T03:20:30.849Z,97320.98
2019-03-31T03:22:06.947Z,97317.88
2019-03-31T03:23:43.722Z,97322.16
2019-03-31T03:25:19.740Z,97328.70
2019-03-31T03:26:55.808Z,97330.23
2019-03-31T03:28:31.950Z,97328.69
2019-03-31T03:30:08.639Z,97332.95
2019-03-31T03:31:45.046Z,97333.69
2019-03-31T03:33:24.199Z,97335.82
2019-03-31T03:35:01.126Z,97335.44
2019-03-31T03:36:43.167Z,97341.06
2019-03-31T03:38:17.549Z,97341.04
2019-03-31T03:40:08.979Z,97343.19
2019-03-31T03:41:45.018Z,97338.52
2019-03-31T03:43:24.225Z,97345.69
2019-03-31T03:45:00.441Z,97341.06
2019-03-31T03:46:36.850Z,97341.02
2019-03-31T03:48:12.872Z,97344.11
2019-03-31T03:49:49.212Z,97340.24
2019-03-31T03:51:28.435Z,97345.66
2019-03-31T03:53:06.840Z,97341.59
2019-03-31T03:54:42.902Z,97346.05
2019-03-31T03:56:19.135Z,97351.63
2019-03-31T03:58:00.834Z,97349.30
2019-03-31T03:59:37.685Z,97356.13
2019-03-31T04:01:20.228Z,97360.56
2019-03-31T04:02:56.326Z,97356.31
2019-03-31T04:04:32.735Z,97361.53
2019-03-31T04:06:11.831Z,97359.41
2019-03-31T04:07:48.029Z,97366.00
2019-03-31T04:09:24.338Z,97365.99
2019-03-31T04:11:13.305Z,97376.24
2019-03-31T04:12:49.759Z,97379.89
2019-03-31T04:14:26.303Z,97380.27
2019-03-31T04:16:02.981Z,97376.22
2019-03-31T04:17:39.260Z,97374.28
2019-03-31T04:19:15.172Z,97371.78
2019-03-31T04:20:52.215Z,97370.98
2019-03-31T04:22:28.860Z,97372.91
2019-03-31T04:24:05.515Z,97370.00
2019-03-31T04:25:41.850Z,97369.95
2019-03-31T04:27:19.143Z,97366.27
2019-03-31T04:28:55.323Z,97376.85
2019-03-31T04:30:31.449Z,97376.86
2019-03-31T04:32:07.843Z,97378.39
2019-03-31T04:33:51.436Z,97376.47
2019-03-31T04:35:22.270Z,97376.14
2019-03-31T04:36:58.305Z,97376.50
2019-03-31T04:38:35.263Z,97393.28
2019-03-31T04:40:11.678Z,97387.48
2019-03-31T04:41:52.513Z,97396.14
2019-03-31T04:43:32.424Z,97396.13
2019-03-31T04:45:08.768Z,97393.80
2019-03-31T04:46:45.021Z,97386.07
2019-03-31T04:48:23.098Z,97390.88
2019-03-31T04:49:59.184Z,97392.03
2019-03-31T04:51:35.981Z,97397.41
2019-03-31T04:53:12.146Z,97394.75
2019-03-31T04:54:48.371Z,97397.62
2019-03-31T04:56:24.462Z,97397.38
2019-03-31T04:58:00.795Z,97404.20
2019-03-31T04:59:36.916Z,97406.28
2019-03-31T05:01:13.228Z,97402.89
2019-03-31T05:02:49.779Z,97408.70
2019-03-31T05:04:25.921Z,97418.88
2019-03-31T05:06:02.254Z,97414.30
2019-03-31T05:07:38.719Z,97419.02
2019-03-31T05:09:16.811Z,97424.00
2019-03-31T05:10:52.691Z,97430.41
2019-03-31T05:12:28.859Z,97433.84
2019-03-31T05:14:06.788Z,97432.72
2019-03-31T05:15:43.333Z,97438.90
2019-03-31T05:17:25.474Z,97443.39
2019-03-31T05:19:07.065Z,97438.69
2019-03-31T05:20:43.368Z,97444.68
2019-03-31T05:22:21.335Z,97442.73
2019-03-31T05:23:57.712Z,97448.48
2019-03-31T05:25:35.095Z,97450.76
2019-03-31T05:27:11.155Z,97449.98
2019-03-31T05:28:47.198Z,97454.97
2019-03-31T05:30:25.413Z,97455.71
2019-03-31T05:32:01.494Z,97459.77
2019-03-31T05:33:38.528Z,97466.69
2019-03-31T05:35:14.797Z,97460.91
2019-03-31T05:36:51.231Z,97466.89
2019-03-31T05:38:30.189Z,97471.14
2019-03-31T05:40:11.590Z,97473.06
2019-03-31T05:41:48.685Z,97475.27
2019-03-31T05:43:25.535Z,97476.89
2019-03-31T05:45:03.518Z,97480.64
2019-03-31T05:46:39.499Z,97484.25
2019-03-31T05:48:15.750Z,97487.92
2019-03-31T05:49:51.729Z,97490.60
2019-03-31T05:51:27.717Z,97484.88
2019-03-31T05:53:03.652Z,97488.22
2019-03-31T05:54:39.923Z,97498.22
2019-03-31T05:56:19.262Z,97492.41
2019-03-31T05:57:58.162Z,97496.13
2019-03-31T05:59:34.071Z,97493.80
2019-03-31T06:01:13.231Z,97495.91
2019-03-31T06:02:49.673Z,97492.50
2019-03-31T06:04:33.078Z,97499.11
2019-03-31T06:06:15.057Z,97495.80
2019-03-31T06:07:56.656Z,97500.09
2019-03-31T06:09:41.958Z,97500.86
2019-03-31T06:11:18.088Z,97497.20
2019-03-31T06:12:56.441Z,97499.13
2019-03-31T06:14:35.352Z,97500.27
2019-03-31T06:16:11.557Z,97500.13
2019-03-31T06:17:50.741Z,97493.96
2019-03-31T06:19:26.816Z,97506.16
2019-03-31T06:21:05.158Z,97498.99
2019-03-31T06:22:44.832Z,97497.45
2019-03-31T06:24:26.373Z,97498.40
2019-03-31T06:26:09.958Z,97497.80
2019-03-31T06:27:49.193Z,97498.33
2019-03-31T06:29:26.070Z,97497.35
2019-03-31T06:31:02.351Z,97492.91
2019-03-31T06:32:42.852Z,97495.80
2019-03-31T06:34:23.541Z,97492.48
2019-03-31T06:35:59.691Z,97491.69
2019-03-31T06:37:41.159Z,97486.61
2019-03-31T06:39:17.856Z,97491.86
2019-03-31T06:40:55.432Z,97493.63
2019-03-31T06:42:34.651Z,97493.48
2019-03-31T06:44:13.947Z,97497.94
2019-03-31T06:45:53.264Z,97497.58
2019-03-31T06:47:32.036Z,97491.49
2019-03-31T06:49:12.610Z,97485.62
2019-03-31T06:50:51.077Z,97478.27
2019-03-31T06:52:27.731Z,97467.88
2019-03-31T06:54:09.180Z,97462.09
2019-03-31T06:55:48.213Z,97457.22
2019-03-31T06:57:24.299Z,97454.45
2019-03-31T06:59:02.536Z,97442.68
2019-03-31T07:00:41.023Z,97443.23
2019-03-31T07:02:20.200Z,97428.48
2019-03-31T07:03:59.475Z,97425.48
2019-03-31T07:05:35.577Z,97413.73
2019-03-31T07:07:15.287Z,97401.34
2019-03-31T07:09:03.242Z,97393.33
2019-03-31T07:11:08.365Z,97386.13
2019-03-31T07:12:50.607Z,97381.39
2019-03-31T07:14:32.586Z,97374.44
2019-03-31T07:16:12.214Z,97370.66
2019-03-31T07:17:52.866Z,97373.31
2019-03-31T07:19:31.987Z,97369.70
2019-03-31T07:21:08.660Z,97368.38
2019-03-31T07:22:44.585Z,97365.02
2019-03-31T07:24:20.753Z,97358.91
2019-03-31T07:25:57.531Z,97354.33
2019-03-31T07:27:35.668Z,97352.86
2019-03-31T07:29:17.939Z,97351.00
2019-03-31T07:30:54.715Z,97358.23
2019-03-31T07:32:31.087Z,97354.64
2019-03-31T07:34:07.449Z,97349.67
2019-03-31T07:35:43.758Z,97352.11
2019-03-31T07:37:19.796Z,97350.03
2019-03-31T07:38:56.411Z,97352.99
2019-03-31T07:40:32.777Z,97350.13
2019-03-31T07:42:09.261Z,97347.72
2019-03-31T07:43:45.822Z,97351.63
2019-03-31T07:45:22.268Z,97355.82
2019-03-31T07:46:58.505Z,97351.88
2019-03-31T07:48:34.447Z,97349.47
2019-03-31T07:50:10.861Z,97351.98
2019-03-31T07:51:49.453Z,97350.80
2019-03-31T07:53:26.093Z,97358.64
2019-03-31T07:55:10.547Z,97351.47
2019-03-31T07:56:48.470Z,97363.30
2019-03-31T07:58:30.239Z,97362.93
2019-03-31T08:00:10.846Z,97373.41
2019-03-31T08:01:50.455Z,97374.80
2019-03-31T08:03:28.643Z,97379.41
2019-03-31T08:05:06.214Z,97383.67
2019-03-31T08:06:44.267Z,97382.55
2019-03-31T08:08:27.615Z,97387.13
2019-03-31T08:10:03.564Z,97380.44
2019-03-31T08:11:40.456Z,97386.75
2019-03-31T08:13:18.902Z,97383.02
2019-03-31T08:15:06.623Z,97396.61
2019-03-31T08:16:45.116Z,97395.14
2019-03-31T08:18:23.848Z,97398.65
2019-03-31T08:20:01.822Z,97405.93
2019-03-31T08:21:39.311Z,97397.88
2019-03-31T08:23:18.386Z,97406.61
2019-03-31T08:24:57.424Z,97404.06
2019-03-31T08:26:36.912Z,97399.25
2019-03-31T08:28:14.837Z,97405.23
2019-03-31T08:30:00.424Z,97404.30
2019-03-31T08:31:32.487Z,97402.50
2019-03-31T08:33:09.938Z,97410.84
2019-03-31T08:34:46.173Z,97414.12
2019-03-31T08:36:23.477Z,97420.08
2019-03-31T08:38:05.018Z,97422.17
2019-03-31T08:39:49.396Z,97425.95
2019-03-31T08:41:29.049Z,97422.95
2019-03-31T08:43:19.692Z,97423.16
2019-03-31T08:44:55.778Z,97419.34
2019-03-31T08:46:36.290Z,97417.27
2019-03-31T08:48:12.579Z,97412.52
2019-03-31T08:49:50.421Z,97410.48
2019-03-31T08:51:26.616Z,97411.94
2019-03-31T08:53:02.799Z,97413.58
2019-03-31T08:54:43.253Z,97416.34
2019-03-31T08:56:25.095Z,97420.33
2019-03-31T08:58:02.578Z,97422.72
2019-03-31T08:59:44.643Z,97424.42
2019-03-31T09:01:21.549Z,97430.43
2019-03-31T09:03:02.113Z,97426.27
2019-03-31T09:04:51.870Z,97423.48
2019-03-31T09:06:30.843Z,97430.94
2019-03-31T09:08:14.836Z,97428.02
2019-03-31T09:09:51.015Z,97427.30
2019-03-31T09:11:29.154Z,97426.61
2019-03-31T09:13:05.541Z,97429.72
2019-03-31T09:14:41.975Z,97436.73
2019-03-31T09:16:18.839Z,97434.23
2019-03-31T09:17:57.779Z,97438.05
2019-03-31T09:19:39.075Z,97436.63
2019-03-31T09:21:16.366Z,97431.99
2019-03-31T09:22:52.810Z,97432.87
2019-03-31T09:24:28.752Z,97427.66
2019-03-31T09:26:09.315Z,97430.52
2019-03-31T09:27:52.453Z,97434.63
2019-03-31T09:29:34.138Z,97435.95
2019-03-31T09:31:13.645Z,97428.56
2019-03-31T09:32:52.905Z,97435.23
2019-03-31T09:34:33.916Z,97436.38
2019-03-31T09:36:16.383Z,97431.43
2019-03-31T09:37:50.046Z,97428.05
2019-03-31T09:39:26.273Z,97438.47
2019-03-31T09:41:06.173Z,97440.42
2019-03-31T09:42:49.686Z,97438.44
2019-03-31T09:44:32.649Z,97442.31
2019-03-31T09:46:18.622Z,97444.59
2019-03-31T09:47:59.440Z,97440.34
2019-03-31T09:49:40.822Z,97436.08
2019-03-31T09:51:24.909Z,97441.49
2019-03-31T09:53:04.172Z,97449.86
2019-03-31T09:54:44.081Z,97456.95
2019-03-31T09:56:20.497Z,97464.27
2019-03-31T09:58:00.502Z,97463.70
2019-03-31T09:59:38.136Z,97464.33
2019-03-31T10:01:22.800Z,97465.53
2019-03-31T10:03:04.695Z,97466.66
2019-03-31T10:04:44.513Z,97468.84
2019-03-31T10:06:30.377Z,97460.31
2019-03-31T10:08:05.773Z,97459.17
2019-03-31T10:09:42.789Z,97456.97
2019-03-31T10:11:18.880Z,97466.48
2019-03-31T10:12:56.307Z,97477.74
2019-03-31T10:14:37.803Z,97482.33
2019-03-31T10:16:21.218Z,97487.33
2019-03-31T10:18:00.233Z,97497.16
2019-03-31T10:19:38.600Z,97495.39
2019-03-31T10:21:17.534Z,97491.13
2019-03-31T10:23:00.508Z,97504.14
2019-03-31T10:24:38.798Z,97503.77
2019-03-31T10:26:31.084Z,97509.34
2019-03-31T10:28:06.977Z,97507.63
2019-03-31T10:29:50.166Z,97506.52
2019-03-31T10:31:26.280Z,97506.62
2019-03-31T10:33:11.752Z,97509.29
2019-03-31T10:34:54.640Z,97500.98
2019-03-31T10:38:44.532Z,97504.06
2019-03-31T10:40:38.549Z,97509.43
2019-03-31T10:42:35.042Z,97515.53
2019-03-31T10:44:13.853Z,97515.52
2019-03-31T10:45:52.223Z,97513.77
2019-03-31T10:47:37.424Z,97513.75
2019-03-31T10:49:34.369Z,97514.20
2019-03-31T10:51:18.618Z,97513.20
2019-03-31T10:53:06.976Z,97513.99
2019-03-31T10:54:48.912Z,97516.05
2019-03-31T10:56:31.499Z,97512.68
2019-03-31T10:58:10.734Z,97514.53
2019-03-31T10:59:49.910Z,97511.50
2019-03-31T11:01:26.464Z,97513.91
2019-03-31T11:03:07.937Z,97512.81
2019-03-31T11:04:51.626Z,97515.41
2019-03-31T11:06:29.457Z,97513.63
2019-03-31T11:08:10.251Z,97514.86
2019-03-31T11:09:52.410Z,97504.86
2019-03-31T11:11:35.398Z,97511.98
2019-03-31T11:13:14.917Z,97502.66
2019-03-31T11:14:54.927Z,97498.97
2019-03-31T11:16:37.673Z,97505.16
2019-03-31T11:18:14.557Z,97506.45
2019-03-31T11:19:52.660Z,97508.66
2019-03-31T11:21:50.399Z,97514.35
2019-03-31T11:23:28.331Z,97517.23
2019-03-31T11:25:19.928Z,97522.93
2019-03-31T11:26:46.532Z,97522.80
2019-03-31T11:28:22.847Z,97521.44
2019-03-31T11:30:00.471Z,97519.91
2019-03-31T11:31:39.222Z,97526.15
2019-03-31T11:33:17.434Z,97523.38
2019-03-31T11:34:58.264Z,97520.64
2019-03-31T11:36:40.575Z,97520.52
2019-03-31T11:38:18.943Z,97520.39
2019-03-31T11:40:05.696Z,97521.75
2019-03-31T11:41:42.549Z,97526.06
2019-03-31T11:43:27.187Z,97522.03
2019-03-31T11:45:08.095Z,97524.59
2019-03-31T11:46:47.075Z,97532.74
2019-03-31T11:48:33.032Z,97526.99
2019-03-31T11:50:11.297Z,97526.50
2019-03-31T11:51:50.159Z,97525.18
2019-03-31T11:53:30.440Z,97527.95
2019-03-31T11:55:10.383Z,97526.80
2019-03-31T11:56:44.964Z,97529.48
2019-03-31T11:58:23.873Z,97535.14
2019-03-31T12:00:04.810Z,97538.23
2019-03-31T12:01:45.088Z,97537.42
2019-03-31T12:03:21.147Z,97538.55
2019-03-31T12:05:10.756Z,97546.37
2019-03-31T12:06:53.124Z,97537.55
2019-03-31T12:08:32.486Z,97537.95
2019-03-31T12:10:11.641Z,97530.50
2019-03-31T12:11:56.543Z,97537.20
2019-03-31T12:13:40.736Z,97528.86
2019-03-31T12:15:17.487Z,97531.92
2019-03-31T12:17:21.497Z,97531.34
2019-03-31T12:19:01.256Z,97537.19
2019-03-31T12:20:42.759Z,97528.47
2019-03-31T12:22:22.411Z,97527.66
2019-03-31T12:24:02.619Z,97526.22
2019-03-31T12:25:44.007Z,97526.00
2019-03-31T12:27:23.169Z,97527.03
2019-03-31T12:29:02.156Z,97522.69
2019-03-31T12:30:39.295Z,97524.82
2019-03-31T12:32:19.833Z,97518.13
2019-03-31T12:34:08.139Z,97522.50
2019-03-31T12:35:52.110Z,97522.14
2019-03-31T12:37:42.218Z,97521.14
2019-03-31T12:39:09.703Z,97514.92
2019-03-31T12:40:49.270Z,97511.32
2019-03-31T12:42:30.096Z,97517.09
2019-03-31T12:44:08.359Z,97518.94
2019-03-31T12:45:58.037Z,97513.09
2019-03-31T12:47:42.002Z,97515.77
2019-03-31T12:49:29.319Z,97517.30
2019-03-31T12:51:18.566Z,97511.86
2019-03-31T12:52:58.030Z,97509.92
2019-03-31T12:54:39.760Z,97512.17
2019-03-31T12:56:27.889Z,97512.84
2019-03-31T12:58:12.096Z,97509.64
2019-03-31T13:00:05.741Z,97503.59
2019-03-31T13:01:46.832Z,97514.04
2019-03-31T13:03:24.659Z,97506.22
2019-03-31T13:05:08.922Z,97504.04
2019-03-31T13:06:53.099Z,97500.00
2019-03-31T13:08:35.261Z,97500.41
2019-03-31T13:10:17.826Z,97494.65
2019-03-31T13:11:58.416Z,97491.05
2019-03-31T13:13:37.476Z,97494.94
2019-03-31T13:15:22.468Z,97495.91
2019-03-31T13:17:06.830Z,97497.67
2019-03-31T13:18:47.290Z,97484.90
2019-03-31T13:20:37.444Z,97486.67
2019-03-31T13:22:31.641Z,97486.48
2019-03-31T13:26:29.610Z,97483.11
2019-03-31T13:30:06.885Z,97478.70
2019-03-31T13:31:45.083Z,97475.28
2019-03-31T13:33:57.789Z,97480.02
2019-03-31T13:35:34.601Z,97475.33
2019-03-31T13:37:16.553Z,97473.68
2019-03-31T13:38:55.490Z,97467.91
2019-03-31T13:40:56.095Z,97482.12
2019-03-31T13:42:33.636Z,97471.95
2019-03-31T13:44:14.697Z,97483.88
2019-03-31T13:45:50.130Z,97479.97
2019-03-31T13:47:41.781Z,97465.89
2019-03-31T13:49:26.173Z,97475.78
2019-03-31T13:51:05.671Z,97476.14
2019-03-31T13:52:45.247Z,97476.20
2019-03-31T13:54:21.916Z,97475.17
2019-03-31T13:56:00.453Z,97478.35
2019-03-31T13:57:39.278Z,97479.02
2019-03-31T13:59:22.119Z,97479.52
2019-03-31T14:01:09.113Z,97480.53
2019-03-31T14:02:54.318Z,97462.77
2019-03-31T14:04:37.121Z,97464.96
2019-03-31T14:06:24.648Z,97464.08
2019-03-31T14:08:09.044Z,97464.78
2019-03-31T14:09:48.354Z,97467.89
2019-03-31T14:11:26.176Z,97463.67
2019-03-31T14:13:04.125Z,97462.27
2019-03-31T14:14:40.917Z,97460.02
2019-03-31T14:16:20.451Z,97450.98
2019-03-31T14:18:07.553Z,97456.52
2019-03-31T14:19:41.725Z,97454.83
2019-03-31T14:21:19.390Z,97454.92
2019-03-31T14:22:56.213Z,97455.16
2019-03-31T14:24:32.728Z,97454.24
2019-03-31T14:26:08.786Z,97463.28
2019-03-31T14:27:45.988Z,97452.28
2019-03-31T14:29:22.629Z,97448.15
2019-03-31T14:30:58.641Z,97460.23
2019-03-31T14:32:37.506Z,97459.53
2019-03-31T14:34:15.195Z,97453.30
2019-03-31T14:35:54.649Z,97453.81
2019-03-31T14:37:33.540Z,97449.47
2019-03-31T14:39:10.918Z,97443.92
2019-03-31T14:40:52.421Z,97447.51
2019-03-31T14:42:30.995Z,97456.67
2019-03-31T14:44:10.170Z,97442.45
2019-03-31T14:45:46.184Z,97441.06
2019-03-31T14:47:32.220Z,97439.08
2019-03-31T14:49:25.722Z,97440.05
2019-03-31T14:51:04.699Z,97436.38
2019-03-31T14:52:42.038Z,97423.28
2019-03-31T14:54:18.305Z,97428.47
2019-03-31T14:55:56.702Z,97425.91
2019-03-31T14:57:33.087Z,97423.02
2019-03-31T14:59:13.252Z,97415.38
2019-03-31T15:00:52.526Z,97425.09
2019-03-31T15:02:28.647Z,97419.61
2019-03-31T15:04:09.356Z,97426.76
2019-03-31T15:05:49.079Z,97411.44
2019-03-31T15:07:31.646Z,97417.77
2019-03-31T15:09:12.761Z,97416.95
2019-03-31T15:11:04.823Z,97417.33
2019-03-31T15:12:50.157Z,97415.05
2019-03-31T15:14:30.763Z,97418.78
2019-03-31T15:16:07.262Z,97416.83
2019-03-31T15:17:46.065Z,97425.36
2019-03-31T15:19:28.677Z,97418.70
2019-03-31T15:21:05.169Z,97427.48
2019-03-31T15:22:47.116Z,97425.64
2019-03-31T15:24:30.899Z,97421.41
2019-03-31T15:26:12.000Z,97414.99
2019-03-31T15:27:50.558Z,97424.83
2019-03-31T15:29:35.127Z,97414.62
2019-03-31T15:31:21.700Z,97407.94
2019-03-31T15:33:02.092Z,97411.89
2019-03-31T15:34:41.812Z,97408.66
2019-03-31T15:36:23.603Z,97404.04
2019-03-31T15:38:15.082Z,97411.05
2019-03-31T15:39:54.463Z,97401.91
2019-03-31T15:41:30.640Z,97399.69
2019-03-31T15:43:09.340Z,97404.67
2019-03-31T15:44:45.814Z,97407.35
2019-03-31T15:46:25.138Z,97404.78
2019-03-31T15:48:01.457Z,97415.13
2019-03-31T15:49:42.983Z,97406.92
2019-03-31T15:51:32.700Z,97397.34
2019-03-31T15:53:30.212Z,97399.25
2019-03-31T15:55:15.495Z,97407.13
2019-03-31T15:56:55.413Z,97409.75
2019-03-31T15:58:38.161Z,97412.47
2019-03-31T16:00:22.574Z,97409.95
2019-03-31T16:02:02.751Z,97419.95
2019-03-31T16:03:40.866Z,97422.23
2019-03-31T16:05:26.516Z,97421.58
2019-03-31T16:07:03.761Z,97417.77
2019-03-31T16:08:40.264Z,97429.06
2019-03-31T16:10:19.284Z,97423.66
2019-03-31T16:12:12.314Z,97431.52
2019-03-31T16:14:13.145Z,97433.66
2019-03-31T16:16:07.420Z,97434.42
2019-03-31T16:17:43.836Z,97429.44
2019-03-31T16:19:23.943Z,97435.34
2019-03-31T16:21:13.399Z,97429.87
2019-03-31T16:22:52.280Z,97433.67
2019-03-31T16:24:38.358Z,97428.72
2019-03-31T16:26:16.701Z,97439.56
2019-03-31T16:27:52.759Z,97444.59
2019-03-31T16:29:29.506Z,97444.36
2019-03-31T16:31:05.752Z,97439.04
2019-03-31T16:32:46.691Z,97438.28
2019-03-31T16:34:25.559Z,97443.59
2019-03-31T16:36:01.576Z,97435.11
2019-03-31T16:37:38.965Z,97442.41
2019-03-31T16:39:18.308Z,97448.03
2019-03-31T16:40:54.692Z,97434.09
2019-03-31T16:42:34.094Z,97439.56
2019-03-31T16:44:13.147Z,97439.04
2019-03-31T16:45:50.591Z,97443.03
2019-03-31T16:47:31.260Z,97446.36
2019-03-31T16:49:16.453Z,97433.27
2019-03-31T16:50:55.158Z,97442.56
2019-03-31T16:52:40.057Z,97450.65
2019-03-31T16:54:18.861Z,97448.86
2019-03-31T16:55:54.734Z,97446.91
2019-03-31T16:57:30.670Z,97452.47
2019-03-31T16:59:06.630Z,97452.12
2019-03-31T17:00:45.183Z,97457.30
2019-03-31T17:02:21.439Z,97450.57
2019-03-31T17:04:09.728Z,97455.67
2019-03-31T17:05:42.295Z,97455.13
2019-03-31T17:07:26.189Z,97454.00
2019-03-31T17:09:15.970Z,97446.65
2019-03-31T17:10:52.023Z,97456.66
2019-03-31T17:12:31.630Z,97449.53
2019-03-31T17:14:10.147Z,97455.47
2019-03-31T17:15:50.241Z,97459.56
2019-03-31T17:17:28.761Z,97460.08
2019-03-31T17:19:06.352Z,97465.47
2019-03-31T17:20:43.515Z,97464.66
2019-03-31T17:22:22.977Z,97462.77
2019-03-31T17:23:58.552Z,97465.61
2019-03-31T17:25:39.113Z,97471.43
2019-03-31T17:27:17.917Z,97468.84
2019-03-31T17:28:59.393Z,97470.25
2019-03-31T17:30:43.141Z,97470.97
2019-03-31T17:32:19.762Z,97467.93
2019-03-31T17:34:02.856Z,97473.09
2019-03-31T17:35:38.876Z,97468.15
2019-03-31T17:37:16.839Z,97467.91
2019-03-31T17:38:56.018Z,97465.64
2019-03-31T17:40:32.644Z,97469.11
2019-03-31T17:42:10.641Z,97468.64
2019-03-31T17:43:47.896Z,97468.64
2019-03-31T17:45:35.612Z,97465.63
2019-03-31T17:47:11.303Z,97469.72
2019-03-31T17:48:52.146Z,97465.19
2019-03-31T17:50:32.497Z,97474.72
2019-03-31T17:52:09.429Z,97469.64
2019-03-31T17:53:45.378Z,97470.52
2019-03-31T17:55:43.824Z,97484.13
2019-03-31T17:57:33.969Z,97480.27
2019-03-31T17:59:20.181Z,97480.77
2019-03-31T18:00:56.039Z,97482.19
2019-03-31T18:02:36.779Z,97487.57
2019-03-31T18:04:16.715Z,97482.04
2019-03-31T18:05:55.225Z,97485.47
2019-03-31T18:07:31.806Z,97486.30
2019-03-31T18:09:17.436Z,97489.27
2019-03-31T18:10:57.365Z,97486.33
2019-03-31T18:12:37.323Z,97491.38
2019-03-31T18:14:23.711Z,97484.29
2019-03-31T18:16:00.729Z,97491.36
2019-03-31T18:17:39.099Z,97489.52
2019-03-31T18:19:15.751Z,97488.19
2019-03-31T18:20:57.657Z,97491.33
2019-03-31T18:22:40.847Z,97498.36
2019-03-31T18:24:20.509Z,97498.78
2019-03-31T18:25:57.039Z,97492.74
2019-03-31T18:27:43.334Z,97501.25
2019-03-31T18:29:30.518Z,97500.89
2019-03-31T18:31:06.220Z,97497.78
2019-03-31T18:32:45.058Z,97495.67
2019-03-31T18:34:29.564Z,97506.70
2019-03-31T18:36:08.424Z,97504.36
2019-03-31T18:37:44.390Z,97502.98
2019-03-31T18:39:26.907Z,97507.13
2019-03-31T18:41:07.245Z,97510.86
2019-03-31T18:42:49.307Z,97503.71
2019-03-31T18:44:35.949Z,97509.39
2019-03-31T18:46:20.233Z,97506.47
2019-03-31T18:48:01.124Z,97511.34
2019-03-31T18:49:42.339Z,97509.79
2019-03-31T18:51:21.992Z,97517.88
2019-03-31T18:52:58.675Z,97511.66
2019-03-31T18:55:08.245Z,97511.66
2019-03-31T18:57:13.643Z,97519.62
2019-03-31T18:59:07.004Z,97523.77
2019-03-31T19:01:04.396Z,97521.47
2019-03-31T19:02:56.893Z,97524.37
2019-03-31T19:04:53.559Z,97526.13
2019-03-31T19:06:49.344Z,97523.65
2019-03-31T19:08:51.823Z,97523.69
2019-03-31T19:10:49.549Z,97527.34
2019-03-31T19:12:50.793Z,97531.23
2019-03-31T19:14:54.654Z,97530.45
2019-03-31T19:16:43.517Z,97530.85
2019-03-31T19:18:36.215Z,97529.89
2019-03-31T19:20:33.194Z,97528.52
2019-03-31T19:22:33.832Z,97536.28
2019-03-31T19:24:40.720Z,97537.63
2019-03-31T19:26:55.792Z,97534.91
2019-03-31T19:28:58.170Z,97541.84
2019-03-31T19:30:54.185Z,97544.23
2019-03-31T19:32:41.100Z,97541.72
2019-03-31T19:34:50.724Z,97538.83
2019-03-31T19:37:07.694Z,97541.80
2019-03-31T19:39:03.980Z,97542.20
2019-03-31T19:41:09.980Z,97538.00
2019-03-31T19:43:20.089Z,97542.41
2019-03-31T19:45:20.612Z,97548.08
2019-03-31T19:47:13.410Z,97544.20
2019-03-31T19:49:07.163Z,97546.52